Time;durP1;ratioP1;P1;durP2;ratioP2;P2;SDS_P1;SDS_P2;PMS_P1;PMS_P2;Temp;Humidity;BMP_temperature;BMP_pressure;BME280_temperature;BME280_humidity;BME280_pressure;Samples;Min_cycle;Max_cycle;Signal;HPM_P1;HPM_P2
2023/04/22 00:01:27;;;;;;;3.60;2.60;;;;;;;;;;5062367;28;20051;-66
2023/04/22 00:03:52;;;;;;;4.13;3.20;;;;;;;;;;5064980;28;20056;-65
2023/04/22 00:06:18;;;;;;;2.93;2.50;;;;;;;;;;5062341;28;20033;-69
2023/04/22 00:08:43;;;;;;;3.83;2.80;;;;;;;;;;5064885;28;20372;-66
2023/04/22 00:11:08;;;;;;;4.17;3.10;;;;;;;;;;5065412;28;20346;-67
2023/04/22 00:13:33;;;;;;;3.23;2.47;;;;;;;;;;5065352;28;20275;-68
2023/04/22 00:15:59;;;;;;;3.53;2.72;;;;;;;;;;5063679;28;20361;-68
2023/04/22 00:18:24;;;;;;;3.97;2.97;;;;;;;;;;5053375;28;20107;-65
2023/04/22 00:20:50;;;;;;;3.33;2.63;;;;;;;;;;5062273;28;20303;-68
2023/04/22 00:23:15;;;;;;;3.60;2.88;;;;;;;;;;5063496;28;20048;-66
2023/04/22 00:25:40;;;;;;;4.50;3.00;;;;;;;;;;5064885;28;20589;-68
2023/04/22 00:28:06;;;;;;;3.97;2.88;;;;;;;;;;5063200;28;20117;-68
2023/04/22 00:30:31;;;;;;;4.47;3.30;;;;;;;;;;5064471;28;20136;-66
2023/04/22 00:32:56;;;;;;;3.73;2.63;;;;;;;;;;5055622;28;20283;-66
2023/04/22 00:35:21;;;;;;;3.83;2.83;;;;;;;;;;5059172;28;20064;-67
2023/04/22 00:37:46;;;;;;;3.20;2.40;;;;;;;;;;5059051;28;20302;-68
2023/04/22 00:40:12;;;;;;;3.50;2.90;;;;;;;;;;5061452;28;20033;-65
2023/04/22 00:42:37;;;;;;;4.37;3.00;;;;;;;;;;5064666;28;20566;-67
2023/04/22 00:45:02;;;;;;;3.58;2.67;;;;;;;;;;5064652;28;20576;-67
2023/04/22 00:47:28;;;;;;;3.38;2.83;;;;;;;;;;5056103;28;20040;-68
2023/04/22 00:49:54;;;;;;;3.58;2.88;;;;;;;;;;5063017;28;20055;-67
2023/04/22 00:52:19;;;;;;;3.90;2.72;;;;;;;;;;5061137;28;20098;-65
2023/04/22 00:54:45;;;;;;;2.95;2.55;;;;;;;;;;5064157;28;20029;-68
2023/04/22 00:57:10;;;;;;;3.33;2.58;;;;;;;;;;5062463;28;20033;-64
2023/04/22 00:59:36;;;;;;;3.67;2.65;;;;;;;;;;5064458;28;20021;-65
2023/04/22 01:02:01;;;;;;;3.80;2.80;;;;;;;;;;5056066;28;20789;-64
2023/04/22 01:04:26;;;;;;;3.23;2.63;;;;;;;;;;5062602;28;20736;-68
2023/04/22 01:06:52;;;;;;;3.92;2.92;;;;;;;;;;5064368;28;20614;-68
2023/04/22 01:09:18;;;;;;;4.10;3.05;;;;;;;;;;5061645;28;20024;-67
2023/04/22 01:11:43;;;;;;;3.25;2.53;;;;;;;;;;5061329;28;20024;-68
2023/04/22 01:14:09;;;;;;;3.87;2.70;;;;;;;;;;5060077;28;20455;-68
2023/04/22 01:16:34;;;;;;;3.70;2.90;;;;;;;;;;5052942;28;20411;-67
2023/04/22 01:19:00;;;;;;;3.65;2.78;;;;;;;;;;5062351;28;20053;-69
2023/04/22 01:21:25;;;;;;;3.45;2.60;;;;;;;;;;5064017;28;20021;-67
2023/04/22 01:23:51;;;;;;;3.80;2.83;;;;;;;;;;5063484;28;20036;-68
2023/04/22 01:26:16;;;;;;;4.30;2.70;;;;;;;;;;5041905;28;20275;-64
2023/04/22 01:28:41;;;;;;;3.70;2.90;;;;;;;;;;5055497;28;20472;-65
2023/04/22 01:31:06;;;;;;;3.10;2.55;;;;;;;;;;5062117;28;20056;-68
2023/04/22 01:33:32;;;;;;;3.70;2.60;;;;;;;;;;5063404;28;20051;-66
2023/04/22 01:35:57;;;;;;;3.90;2.70;;;;;;;;;;5062619;28;20434;-65
2023/04/22 01:38:23;;;;;;;3.45;2.88;;;;;;;;;;5051636;28;20037;-65
2023/04/22 01:40:48;;;;;;;3.73;3.10;;;;;;;;;;5049297;28;20111;-68
2023/04/22 01:43:13;;;;;;;3.37;2.80;;;;;;;;;;5061640;28;20282;-66
2023/04/22 01:45:38;;;;;;;3.40;2.80;;;;;;;;;;5060135;28;20021;-67
2023/04/22 01:48:05;;;;;;;3.90;2.83;;;;;;;;;;5063545;28;20032;-68
2023/04/22 01:50:30;;;;;;;3.75;2.80;;;;;;;;;;5063161;28;20255;-69
2023/04/22 01:52:56;;;;;;;4.20;3.10;;;;;;;;;;5061477;28;20020;-68
2023/04/22 01:55:21;;;;;;;3.47;2.73;;;;;;;;;;5058561;28;20412;-66
2023/04/22 01:57:46;;;;;;;3.77;2.97;;;;;;;;;;5061729;28;20538;-68
2023/04/22 02:00:12;;;;;;;4.63;3.35;;;;;;;;;;5062918;28;20243;-67
2023/04/22 02:02:37;;;;;;;4.03;3.17;;;;;;;;;;5061822;28;20115;-68
2023/04/22 02:05:03;;;;;;;4.15;2.83;;;;;;;;;;5058666;28;20078;-68
2023/04/22 02:07:28;;;;;;;3.80;2.83;;;;;;;;;;5060582;28;20527;-67
2023/04/22 02:09:53;;;;;;;4.13;3.00;;;;;;;;;;5063140;28;20023;-67
2023/04/22 02:12:19;;;;;;;3.43;2.80;;;;;;;;;;5061479;28;20111;-69
2023/04/22 02:14:44;;;;;;;3.75;2.50;;;;;;;;;;5061628;28;20633;-68
2023/04/22 02:17:09;;;;;;;3.95;2.90;;;;;;;;;;5062860;28;20468;-66
2023/04/22 02:19:34;;;;;;;3.53;2.97;;;;;;;;;;5062656;28;20012;-67
2023/04/22 02:22:00;;;;;;;3.37;2.80;;;;;;;;;;5050288;28;20482;-68
2023/04/22 02:24:25;;;;;;;4.85;3.45;;;;;;;;;;5060939;28;20478;-66
2023/04/22 02:26:50;;;;;;;5.03;3.63;;;;;;;;;;5062168;28;20023;-66
2023/04/22 02:29:16;;;;;;;3.90;3.00;;;;;;;;;;5055108;28;20125;-68
2023/04/22 02:31:41;;;;;;;3.83;3.28;;;;;;;;;;5048381;28;20009;-66
2023/04/22 02:34:06;;;;;;;3.87;3.00;;;;;;;;;;5042570;28;20474;-64
2023/04/22 02:36:33;;;;;;;4.15;3.10;;;;;;;;;;5024233;28;20278;-66
2023/04/22 02:38:58;;;;;;;3.90;2.85;;;;;;;;;;5043426;28;20055;-68
2023/04/22 02:41:24;;;;;;;4.55;3.17;;;;;;;;;;5053056;28;20470;-68
2023/04/22 02:43:49;;;;;;;4.30;2.95;;;;;;;;;;5061368;28;20421;-65
2023/04/22 02:46:17;;;;;;;3.80;2.80;;;;;;;;;;5063301;28;20025;-67
2023/04/22 02:48:42;;;;;;;4.13;3.25;;;;;;;;;;5048085;28;20420;-68
2023/04/22 02:51:07;;;;;;;3.80;2.80;;;;;;;;;;5053682;28;20120;-65
2023/04/22 02:53:33;;;;;;;4.67;3.13;;;;;;;;;;5062669;28;20068;-69
2023/04/22 02:55:58;;;;;;;4.40;3.28;;;;;;;;;;5057390;28;20277;-67
2023/04/22 02:58:25;;;;;;;3.77;3.13;;;;;;;;;;5048412;28;20056;-64
2023/04/22 03:00:50;;;;;;;3.40;2.75;;;;;;;;;;5061592;28;20024;-64
2023/04/22 03:03:15;;;;;;;3.60;2.90;;;;;;;;;;5076527;28;20040;-68
2023/04/22 03:05:41;;;;;;;3.53;3.05;;;;;;;;;;5061646;28;20108;-68
2023/04/22 03:08:06;;;;;;;3.93;2.90;;;;;;;;;;5062755;28;20447;-68
2023/04/22 03:10:31;;;;;;;3.77;3.00;;;;;;;;;;5056980;28;20472;-69
2023/04/22 03:12:56;;;;;;;3.07;2.40;;;;;;;;;;5056940;28;20444;-67
2023/04/22 03:15:22;;;;;;;4.45;3.15;;;;;;;;;;5045592;28;20807;-69
2023/04/22 03:17:47;;;;;;;3.70;2.70;;;;;;;;;;5050120;28;20418;-64
2023/04/22 03:20:12;;;;;;;3.58;2.88;;;;;;;;;;5059426;28;20044;-65
2023/04/22 03:22:38;;;;;;;3.13;2.60;;;;;;;;;;5062882;28;20036;-68
2023/04/22 03:25:03;;;;;;;3.58;2.88;;;;;;;;;;5059176;28;20048;-68
2023/04/22 03:27:28;;;;;;;4.32;2.97;;;;;;;;;;5058674;28;20036;-68
2023/04/22 03:29:54;;;;;;;3.73;3.00;;;;;;;;;;5055907;28;20052;-69
2023/04/22 03:32:19;;;;;;;4.87;3.03;;;;;;;;;;5062546;28;20277;-66
2023/04/22 03:34:44;;;;;;;4.00;3.03;;;;;;;;;;5062370;28;20290;-68
2023/04/22 03:37:09;;;;;;;3.47;2.90;;;;;;;;;;5052177;28;20431;-67
2023/04/22 03:39:35;;;;;;;3.83;3.10;;;;;;;;;;5051074;28;20086;-69
2023/04/22 03:42:00;;;;;;;4.28;2.90;;;;;;;;;;5058196;28;20268;-67
2023/04/22 03:44:25;;;;;;;3.95;2.88;;;;;;;;;;5065787;28;20043;-69
2023/04/22 03:46:51;;;;;;;3.78;2.95;;;;;;;;;;5061879;28;20032;-68
2023/04/22 03:49:16;;;;;;;3.73;2.80;;;;;;;;;;5064476;28;20100;-69
2023/04/22 03:51:41;;;;;;;4.17;3.10;;;;;;;;;;5065675;28;20332;-65
2023/04/22 03:54:06;;;;;;;4.20;3.00;;;;;;;;;;5058711;28;20338;-70
2023/04/22 03:56:32;;;;;;;4.90;2.90;;;;;;;;;;5062857;28;20116;-68
2023/04/22 03:58:57;;;;;;;3.92;2.85;;;;;;;;;;5048639;28;20298;-65
2023/04/22 04:01:23;;;;;;;4.00;3.03;;;;;;;;;;5046612;28;20445;-68
2023/04/22 04:03:48;;;;;;;3.73;2.80;;;;;;;;;;5048866;28;20283;-68
2023/04/22 04:06:13;;;;;;;3.57;2.40;;;;;;;;;;5050308;28;20037;-65
2023/04/22 04:08:38;;;;;;;2.88;2.50;;;;;;;;;;5048090;28;20048;-65
2023/04/22 04:11:04;;;;;;;3.80;3.13;;;;;;;;;;5057090;28;20041;-66
2023/04/22 04:13:31;;;;;;;3.80;2.77;;;;;;;;;;5044542;28;20033;-68
2023/04/22 04:15:57;;;;;;;4.25;2.70;;;;;;;;;;5046299;28;20484;-68
2023/04/22 04:18:22;;;;;;;3.88;2.53;;;;;;;;;;5046050;28;20037;-66
2023/04/22 04:20:47;;;;;;;3.70;2.40;;;;;;;;;;5046621;28;20041;-70
2023/04/22 04:23:12;;;;;;;4.13;2.90;;;;;;;;;;5042456;28;20292;-69
2023/04/22 04:25:38;;;;;;;3.53;2.60;;;;;;;;;;5047748;28;20131;-66
2023/04/22 04:28:08;;;;;;;4.10;2.78;;;;;;;;;;5046716;28;20127;-63
2023/04/22 04:30:33;;;;;;;3.72;3.10;;;;;;;;;;5052286;28;20134;-75
2023/04/22 04:32:58;;;;;;;3.60;2.90;;;;;;;;;;5066027;28;20428;-66
2023/04/22 04:35:23;;;;;;;3.97;2.87;;;;;;;;;;5065702;28;20047;-70
2023/04/22 04:37:49;;;;;;;4.07;3.03;;;;;;;;;;5057763;28;20865;-66
2023/04/22 04:40:15;;;;;;;3.70;2.90;;;;;;;;;;5058172;28;20484;-74
2023/04/22 04:42:41;;;;;;;3.80;2.90;;;;;;;;;;5051482;28;20039;-74
2023/04/22 04:45:07;;;;;;;3.70;2.78;;;;;;;;;;5061209;28;20052;-71
2023/04/22 04:47:32;;;;;;;3.28;2.60;;;;;;;;;;5054748;28;20486;-71
2023/04/22 04:49:59;;;;;;;3.33;2.60;;;;;;;;;;5047100;28;20493;-72
2023/04/22 04:52:24;;;;;;;3.95;3.03;;;;;;;;;;5047993;28;20472;-74
2023/04/22 04:54:49;;;;;;;3.65;2.85;;;;;;;;;;5059420;28;20040;-69
2023/04/22 04:57:15;;;;;;;3.10;2.50;;;;;;;;;;5059831;28;20040;-74
2023/04/22 04:59:40;;;;;;;3.70;2.80;;;;;;;;;;5067911;28;20612;-75
2023/04/22 05:02:05;;;;;;;3.33;2.73;;;;;;;;;;5056038;28;20028;-69
2023/04/22 05:04:30;;;;;;;3.70;2.63;;;;;;;;;;5054894;28;20855;-67
2023/04/22 05:06:56;;;;;;;4.03;2.85;;;;;;;;;;5048987;28;20298;-67
2023/04/22 05:09:21;;;;;;;3.23;2.70;;;;;;;;;;5044547;28;20045;-67
2023/04/22 05:11:46;;;;;;;3.37;2.73;;;;;;;;;;5047571;28;20291;-63
2023/04/22 05:14:11;;;;;;;3.83;2.90;;;;;;;;;;5057523;28;21094;-68
2023/04/22 05:16:36;;;;;;;4.43;2.80;;;;;;;;;;5044733;28;20363;-67
2023/04/22 05:19:02;;;;;;;3.67;2.67;;;;;;;;;;5052615;28;20284;-67
2023/04/22 05:21:27;;;;;;;3.33;2.83;;;;;;;;;;5041554;28;20686;-65
2023/04/22 05:23:52;;;;;;;3.58;2.80;;;;;;;;;;5036576;28;20334;-65
2023/04/22 05:26:17;;;;;;;5.03;3.03;;;;;;;;;;5047777;28;20532;-64
2023/04/22 05:28:43;;;;;;;4.60;2.87;;;;;;;;;;5048595;28;20402;-66
2023/04/22 05:31:08;;;;;;;3.53;2.90;;;;;;;;;;5048529;28;20294;-62
2023/04/22 05:33:33;;;;;;;3.33;2.80;;;;;;;;;;5062234;28;20555;-63
2023/04/22 05:35:58;;;;;;;3.70;2.85;;;;;;;;;;5044492;28;20056;-67
2023/04/22 05:38:24;;;;;;;3.60;2.93;;;;;;;;;;5060142;28;20362;-67
2023/04/22 05:40:49;;;;;;;4.43;2.97;;;;;;;;;;5058789;28;20302;-69
2023/04/22 05:43:15;;;;;;;5.27;3.20;;;;;;;;;;5047070;28;20041;-66
2023/04/22 05:45:40;;;;;;;4.32;2.92;;;;;;;;;;5045642;28;20272;-71
2023/04/22 05:48:05;;;;;;;31.67;22.27;;;;;;;;;;5052252;28;20033;-71
2023/04/22 05:50:30;;;;;;;17.00;12.63;;;;;;;;;;5055674;28;20847;-68
2023/04/22 05:52:56;;;;;;;25.52;19.02;;;;;;;;;;5066218;28;20271;-67
2023/04/22 05:55:21;;;;;;;23.00;15.40;;;;;;;;;;5051946;28;20033;-75
2023/04/22 05:57:46;;;;;;;21.00;15.40;;;;;;;;;;5049456;28;20036;-70
2023/04/22 06:00:12;;;;;;;21.77;13.90;;;;;;;;;;5037656;28;20295;-64
2023/04/22 06:02:37;;;;;;;18.90;13.55;;;;;;;;;;5059595;28;20287;-70
2023/04/22 06:05:02;;;;;;;16.60;12.23;;;;;;;;;;5052326;28;20424;-68
2023/04/22 06:07:27;;;;;;;16.52;12.30;;;;;;;;;;5056168;28;20429;-65
2023/04/22 06:09:53;;;;;;;17.40;12.07;;;;;;;;;;5055237;28;20033;-66
2023/04/22 06:12:18;;;;;;;16.88;11.73;;;;;;;;;;5064776;28;20066;-67
2023/04/22 06:14:43;;;;;;;16.70;11.90;;;;;;;;;;5044942;28;20025;-65
2023/04/22 06:17:09;;;;;;;15.38;11.35;;;;;;;;;;5044197;28;20505;-64
2023/04/22 06:19:34;;;;;;;16.03;10.77;;;;;;;;;;5052235;28;20028;-71
2023/04/22 06:21:59;;;;;;;15.13;11.13;;;;;;;;;;5060596;28;20824;-63
2023/04/22 06:24:24;;;;;;;15.27;11.30;;;;;;;;;;5055480;28;20516;-66
2023/04/22 06:26:50;;;;;;;13.50;10.40;;;;;;;;;;5060838;28;20290;-65
2023/04/22 06:29:15;;;;;;;14.43;10.43;;;;;;;;;;5052635;28;20286;-73
2023/04/22 06:31:40;;;;;;;13.60;9.80;;;;;;;;;;5055634;28;20025;-64
2023/04/22 06:34:06;;;;;;;12.70;9.82;;;;;;;;;;5060221;28;20960;-66
2023/04/22 06:36:36;;;;;;;14.00;10.43;;;;;;;;;;5061075;28;20036;-69
2023/04/22 06:39:02;;;;;;;;;;;;;;;;;;5051386;28;20275;-67
2023/04/22 06:41:27;;;;;;;12.38;9.82;;;;;;;;;;5046439;28;19923;-64
2023/04/22 06:43:52;;;;;;;12.53;9.87;;;;;;;;;;5055566;28;20668;-64
2023/04/22 06:46:17;;;;;;;14.57;10.13;;;;;;;;;;5060473;28;20297;-62
2023/04/22 06:48:43;;;;;;;14.73;10.37;;;;;;;;;;5040273;28;20282;-66
2023/04/22 06:51:08;;;;;;;12.30;9.77;;;;;;;;;;5059656;28;20697;-63
2023/04/22 06:53:33;;;;;;;13.10;9.63;;;;;;;;;;5062802;28;20828;-63
2023/04/22 06:55:58;;;;;;;12.77;9.47;;;;;;;;;;5062533;28;20063;-64
2023/04/22 06:58:24;;;;;;;11.93;9.50;;;;;;;;;;5064964;28;20275;-65
2023/04/22 07:00:49;;;;;;;12.93;9.65;;;;;;;;;;5050637;28;20039;-65
2023/04/22 07:03:14;;;;;;;12.43;9.13;;;;;;;;;;5048022;28;20482;-66
2023/04/22 07:05:39;;;;;;;13.50;9.35;;;;;;;;;;5047749;28;20313;-65
2023/04/22 07:08:05;;;;;;;11.75;8.93;;;;;;;;;;5065176;28;20036;-70
2023/04/22 07:10:30;;;;;;;13.02;9.10;;;;;;;;;;5050093;28;20029;-76
2023/04/22 07:12:55;;;;;;;11.53;8.60;;;;;;;;;;5062522;28;20097;-65
2023/04/22 07:15:20;;;;;;;11.97;8.67;;;;;;;;;;5068660;28;20101;-68
2023/04/22 07:17:46;;;;;;;11.73;7.83;;;;;;;;;;5057966;28;20029;-70
2023/04/22 07:20:11;;;;;;;10.77;8.20;;;;;;;;;;5070429;28;20298;-73
2023/04/22 07:22:36;;;;;;;10.67;8.00;;;;;;;;;;5063808;28;20295;-66
2023/04/22 07:25:02;;;;;;;10.93;8.27;;;;;;;;;;5052547;28;20838;-66
2023/04/22 07:27:27;;;;;;;10.85;8.35;;;;;;;;;;5054043;28;20290;-74
2023/04/22 07:29:52;;;;;;;11.57;8.55;;;;;;;;;;5068369;28;20048;-71
2023/04/22 07:32:18;;;;;;;11.73;8.82;;;;;;;;;;5062981;28;20052;-70
2023/04/22 07:34:43;;;;;;;10.33;7.83;;;;;;;;;;5055558;28;20428;-69
2023/04/22 07:37:08;;;;;;;10.30;7.60;;;;;;;;;;5055946;28;20287;-67
2023/04/22 07:39:33;;;;;;;10.98;7.80;;;;;;;;;;5068038;28;20732;-59
2023/04/22 07:41:59;;;;;;;10.07;7.73;;;;;;;;;;5048951;28;20162;-67
2023/04/22 07:44:24;;;;;;;10.82;7.88;;;;;;;;;;5059706;28;20310;-65
2023/04/22 07:46:49;;;;;;;11.30;7.90;;;;;;;;;;5054533;28;20025;-64
2023/04/22 07:49:16;;;;;;;9.93;7.43;;;;;;;;;;5052975;28;20032;-64
2023/04/22 07:51:41;;;;;;;11.40;7.45;;;;;;;;;;5048724;28;20294;-65
2023/04/22 07:54:06;;;;;;;9.27;7.18;;;;;;;;;;5062053;28;20033;-74
2023/04/22 07:56:32;;;;;;;13.73;7.80;;;;;;;;;;5052802;28;20024;-67
2023/04/22 07:58:57;;;;;;;10.55;7.85;;;;;;;;;;5062677;28;20057;-66
2023/04/22 08:01:22;;;;;;;10.90;7.35;;;;;;;;;;5055171;28;20506;-62
2023/04/22 08:03:48;;;;;;;10.07;7.50;;;;;;;;;;5068320;28;20435;-64
2023/04/22 08:06:13;;;;;;;10.00;7.33;;;;;;;;;;5060959;28;20314;-64
2023/04/22 08:08:38;;;;;;;13.25;7.47;;;;;;;;;;5065531;28;20373;-66
2023/04/22 08:11:03;;;;;;;10.33;7.17;;;;;;;;;;5041608;28;20025;-62
2023/04/22 08:13:29;;;;;;;10.30;5.95;;;;;;;;;;5057872;28;20714;-69
2023/04/22 08:15:54;;;;;;;10.00;5.93;;;;;;;;;;5059346;28;20048;-66
2023/04/22 08:18:19;;;;;;;9.20;6.50;;;;;;;;;;5063515;28;20028;-67
2023/04/22 08:20:45;;;;;;;10.13;7.30;;;;;;;;;;5064624;28;20016;-67
2023/04/22 08:23:11;;;;;;;12.95;6.43;;;;;;;;;;5061641;28;20031;-67
2023/04/22 08:25:36;;;;;;;10.32;6.38;;;;;;;;;;5066557;28;20036;-67
2023/04/22 08:28:01;;;;;;;9.93;6.50;;;;;;;;;;5063610;28;20489;-72
2023/04/22 08:30:27;;;;;;;10.05;6.43;;;;;;;;;;5067172;28;20539;-66
2023/04/22 08:32:52;;;;;;;8.73;6.22;;;;;;;;;;5065499;28;20044;-66
2023/04/22 08:35:17;;;;;;;9.97;6.00;;;;;;;;;;5055855;28;20063;-65
2023/04/22 08:37:43;;;;;;;9.35;6.18;;;;;;;;;;5062677;28;20361;-64
2023/04/22 08:40:08;;;;;;;10.13;6.03;;;;;;;;;;5058148;28;20515;-65
2023/04/22 08:42:33;;;;;;;10.30;6.18;;;;;;;;;;5063346;28;20112;-61
2023/04/22 08:44:59;;;;;;;9.20;5.43;;;;;;;;;;5056209;28;20051;-68
2023/04/22 08:47:24;;;;;;;8.93;5.63;;;;;;;;;;5061960;28;20317;-67
2023/04/22 08:49:49;;;;;;;9.20;5.57;;;;;;;;;;5049436;28;20686;-69
2023/04/22 08:52:15;;;;;;;6.95;4.82;;;;;;;;;;5050765;28;20041;-68
2023/04/22 08:54:40;;;;;;;6.80;3.67;;;;;;;;;;5064238;28;20036;-68
2023/04/22 08:57:06;;;;;;;6.00;3.58;;;;;;;;;;5059418;28;20355;-71
2023/04/22 08:59:31;;;;;;;6.43;3.90;;;;;;;;;;5046607;28;20524;-62
2023/04/22 09:01:57;;;;;;;8.77;4.27;;;;;;;;;;5047899;28;20079;-65
2023/04/22 09:04:22;;;;;;;6.63;4.10;;;;;;;;;;5060087;28;20317;-67
2023/04/22 09:06:47;;;;;;;7.50;3.80;;;;;;;;;;5061336;28;20040;-70
2023/04/22 09:09:13;;;;;;;7.17;3.70;;;;;;;;;;5052301;28;20633;-63
2023/04/22 09:11:38;;;;;;;8.55;3.88;;;;;;;;;;5046346;28;20280;-65
2023/04/22 09:14:04;;;;;;;7.17;3.73;;;;;;;;;;5055312;28;20044;-62
2023/04/22 09:16:30;;;;;;;6.93;3.80;;;;;;;;;;5067109;28;20746;-66
2023/04/22 09:18:56;;;;;;;8.35;3.58;;;;;;;;;;5053789;28;20160;-64
2023/04/22 09:21:24;;;;;;;6.67;3.63;;;;;;;;;;5064291;28;20513;-70
2023/04/22 09:23:49;;;;;;;7.78;4.10;;;;;;;;;;5049501;28;20388;-65
2023/04/22 09:26:17;;;;;;;5.85;3.78;;;;;;;;;;5056087;28;20132;-68
2023/04/22 09:28:52;;;;;;;6.43;3.80;;;;;;;;;;5050323;28;20134;-67
2023/04/22 09:31:18;;;;;;;8.13;3.90;;;;;;;;;;5050403;28;20049;-63
2023/04/22 09:33:51;;;;;;;5.68;3.55;;;;;;;;;;5038379;28;20043;-61
2023/04/22 09:36:16;;;;;;;4.60;3.45;;;;;;;;;;5059197;28;20039;-63
2023/04/22 09:38:52;;;;;;;6.32;3.35;;;;;;;;;;5063093;28;20048;-66
2023/04/22 09:41:17;;;;;;;5.13;3.40;;;;;;;;;;5059921;28;20799;-68
2023/04/22 09:43:43;;;;;;;5.13;3.33;;;;;;;;;;5065763;28;20058;-68
2023/04/22 09:46:08;;;;;;;6.53;3.53;;;;;;;;;;5061828;28;20036;-63
2023/04/22 09:48:34;;;;;;;5.88;3.40;;;;;;;;;;5064168;28;20357;-66
2023/04/22 09:50:59;;;;;;;6.03;3.50;;;;;;;;;;5055014;28;20143;-64
2023/04/22 09:53:24;;;;;;;4.22;3.28;;;;;;;;;;5042600;28;20279;-65
2023/04/22 09:55:52;;;;;;;5.03;3.63;;;;;;;;;;5059323;28;20104;-62
2023/04/22 09:58:18;;;;;;;5.32;3.60;;;;;;;;;;5060908;28;20509;-69
2023/04/22 10:00:46;;;;;;;6.47;3.88;;;;;;;;;;5058593;28;20143;-60
2023/04/22 10:03:11;;;;;;;4.97;3.38;;;;;;;;;;5061293;28;20033;-67
2023/04/22 10:05:36;;;;;;;6.10;3.70;;;;;;;;;;5053169;28;20406;-67
2023/04/22 10:08:05;;;;;;;6.60;3.20;;;;;;;;;;5047645;28;20271;-66
2023/04/22 10:10:30;;;;;;;5.95;3.30;;;;;;;;;;5048756;28;20037;-67
2023/04/22 10:12:55;;;;;;;5.38;3.13;;;;;;;;;;5046467;28;20037;-66
2023/04/22 10:15:21;;;;;;;4.00;2.70;;;;;;;;;;5051355;28;20094;-63
2023/04/22 10:17:46;;;;;;;5.63;2.97;;;;;;;;;;5045507;28;20064;-66
2023/04/22 10:20:14;;;;;;;4.95;3.08;;;;;;;;;;5046842;28;20401;-63
2023/04/22 10:22:41;;;;;;;6.28;3.15;;;;;;;;;;5044276;28;20022;-68
2023/04/22 10:25:10;;;;;;;5.40;2.70;;;;;;;;;;5050006;28;20529;-69
2023/04/22 10:27:35;;;;;;;3.90;3.00;;;;;;;;;;5054011;28;20044;-66
2023/04/22 10:30:00;;;;;;;4.23;2.60;;;;;;;;;;5053456;28;20045;-67
2023/04/22 10:32:26;;;;;;;4.82;2.90;;;;;;;;;;5054569;28;20024;-63
2023/04/22 10:35:05;;;;;;;5.63;2.85;;;;;;;;;;5048239;28;20050;-65
2023/04/22 10:37:30;;;;;;;4.32;2.70;;;;;;;;;;5046366;28;25929;-66
2023/04/22 10:40:09;;;;;;;3.37;2.47;;;;;;;;;;5046718;28;20037;-61
2023/04/22 10:42:35;;;;;;;4.30;2.13;;;;;;;;;;5053475;28;20417;-66
2023/04/22 10:45:01;;;;;;;4.28;2.40;;;;;;;;;;5049444;28;20052;-62
2023/04/22 10:47:36;;;;;;;4.97;2.40;;;;;;;;;;5035955;28;20033;-58
2023/04/22 10:50:12;;;;;;;5.20;2.25;;;;;;;;;;5056496;28;20037;-60
2023/04/22 10:52:37;;;;;;;3.10;2.22;;;;;;;;;;5049490;28;20051;-67
2023/04/22 10:55:03;;;;;;;4.53;2.58;;;;;;;;;;5054112;28;20497;-65
2023/04/22 10:57:34;;;;;;;3.80;2.20;;;;;;;;;;5064516;28;20036;-68
2023/04/22 10:59:59;;;;;;;3.00;2.10;;;;;;;;;;5056224;28;20056;-65
2023/04/22 11:02:25;;;;;;;3.13;2.30;;;;;;;;;;5052120;28;20070;-62
2023/04/22 11:04:53;;;;;;;4.82;2.35;;;;;;;;;;5051035;28;22855;-66
2023/04/22 11:07:25;;;;;;;3.03;2.03;;;;;;;;;;5052687;28;20127;-61
2023/04/22 11:10:03;;;;;;;3.53;2.35;;;;;;;;;;5055364;28;20032;-64
2023/04/22 11:12:37;;;;;;;3.78;2.30;;;;;;;;;;5060147;28;20130;-60
2023/04/22 11:15:15;;;;;;;3.47;2.15;;;;;;;;;;5047800;28;20041;-67
2023/04/22 11:17:41;;;;;;;3.00;2.20;;;;;;;;;;5045454;28;20064;-62
2023/04/22 11:20:07;;;;;;;3.10;2.08;;;;;;;;;;5052481;28;20068;-70
2023/04/22 11:22:35;;;;;;;3.00;2.10;;;;;;;;;;5063915;28;20028;-67
2023/04/22 11:25:01;;;;;;;3.22;2.20;;;;;;;;;;5047993;28;20094;-60
2023/04/22 11:27:26;;;;;;;3.55;2.10;;;;;;;;;;5064053;28;20060;-65
2023/04/22 11:30:11;;;;;;;3.30;1.98;;;;;;;;;;5048397;28;20074;-68
2023/04/22 11:32:40;;;;;;;2.92;1.65;;;;;;;;;;5051108;28;20516;-62
2023/04/22 11:35:06;;;;;;;3.13;1.95;;;;;;;;;;5059978;28;20067;-69
2023/04/22 11:37:38;;;;;;;2.88;1.90;;;;;;;;;;5050100;28;20055;-65
2023/04/22 11:40:04;;;;;;;3.30;2.13;;;;;;;;;;5061586;28;20044;-64
2023/04/22 11:42:29;;;;;;;3.72;1.92;;;;;;;;;;5051357;28;20097;-64
2023/04/22 11:44:54;;;;;;;3.93;2.00;;;;;;;;;;5057457;28;20071;-66
2023/04/22 11:47:19;;;;;;;2.85;1.50;;;;;;;;;;5061285;28;20270;-68
2023/04/22 11:49:55;;;;;;;2.70;1.80;;;;;;;;;;5053198;28;20039;-62
2023/04/22 11:52:20;;;;;;;2.67;1.83;;;;;;;;;;5063855;28;20267;-64
2023/04/22 11:54:45;;;;;;;3.10;1.43;;;;;;;;;;5064902;28;20103;-70
2023/04/22 11:57:14;;;;;;;3.27;1.83;;;;;;;;;;5061349;28;20262;-64
2023/04/22 11:59:39;;;;;;;3.72;1.77;;;;;;;;;;5050910;28;20271;-68
2023/04/22 12:02:05;;;;;;;3.55;1.52;;;;;;;;;;5071205;28;20158;-66
2023/04/22 12:04:37;;;;;;;3.25;1.67;;;;;;;;;;5041216;28;20044;-67
2023/04/22 12:07:02;;;;;;;2.78;1.90;;;;;;;;;;5060294;28;20120;-68
2023/04/22 12:09:27;;;;;;;2.23;1.70;;;;;;;;;;5061233;28;20110;-65
2023/04/22 12:11:53;;;;;;;3.30;1.50;;;;;;;;;;5059756;28;20286;-63
2023/04/22 12:14:18;;;;;;;2.30;1.67;;;;;;;;;;5065007;28;20043;-68
2023/04/22 12:16:43;;;;;;;4.57;1.90;;;;;;;;;;5062350;28;20036;-67
2023/04/22 12:19:08;;;;;;;4.87;1.70;;;;;;;;;;5058741;28;20639;-67
2023/04/22 12:21:34;;;;;;;3.03;1.58;;;;;;;;;;5053021;28;20068;-64
2023/04/22 12:24:02;;;;;;;3.10;1.50;;;;;;;;;;5050071;28;20554;-65
2023/04/22 12:26:27;;;;;;;3.08;1.40;;;;;;;;;;5059600;28;20092;-67
2023/04/22 12:28:53;;;;;;;2.92;1.63;;;;;;;;;;5054350;28;20041;-62
2023/04/22 12:31:18;;;;;;;2.58;1.60;;;;;;;;;;5061320;28;20048;-70
2023/04/22 12:33:44;;;;;;;4.97;1.70;;;;;;;;;;5058664;28;20033;-66
2023/04/22 12:36:09;;;;;;;2.50;1.42;;;;;;;;;;5057211;28;20254;-65
2023/04/22 12:38:34;;;;;;;2.67;1.85;;;;;;;;;;5058865;28;20063;-70
2023/04/22 12:41:00;;;;;;;3.37;1.70;;;;;;;;;;5048310;28;20096;-64
2023/04/22 12:43:25;;;;;;;2.88;1.70;;;;;;;;;;5059954;28;20845;-67
2023/04/22 12:45:50;;;;;;;4.37;1.70;;;;;;;;;;5056079;28;20056;-67
2023/04/22 12:48:16;;;;;;;3.50;1.73;;;;;;;;;;5050390;28;20275;-69
2023/04/22 12:50:41;;;;;;;7.85;1.80;;;;;;;;;;5047954;28;20291;-65
2023/04/22 12:53:06;;;;;;;5.53;1.67;;;;;;;;;;5049609;28;20040;-65
2023/04/22 12:55:32;;;;;;;3.63;1.90;;;;;;;;;;5068038;28;20396;-69
2023/04/22 12:57:57;;;;;;;2.88;1.52;;;;;;;;;;5058911;28;20032;-69
2023/04/22 13:00:23;;;;;;;3.38;1.80;;;;;;;;;;5058405;28;20173;-69
2023/04/22 13:02:48;;;;;;;2.35;1.35;;;;;;;;;;5054232;28;20482;-68
2023/04/22 13:05:14;;;;;;;3.42;1.67;;;;;;;;;;5057908;28;20165;-64
2023/04/22 13:07:40;;;;;;;3.13;2.13;;;;;;;;;;5052558;28;20167;-68
2023/04/22 13:10:06;;;;;;;3.30;1.70;;;;;;;;;;5062117;28;20403;-69
2023/04/22 13:12:31;;;;;;;3.35;1.67;;;;;;;;;;5048779;28;20037;-66
2023/04/22 13:14:56;;;;;;;2.50;1.87;;;;;;;;;;5051648;28;20051;-67
2023/04/22 13:17:22;;;;;;;2.92;1.60;;;;;;;;;;5062268;28;20791;-68
2023/04/22 13:19:47;;;;;;;3.37;1.90;;;;;;;;;;5047295;28;20388;-66
2023/04/22 13:22:12;;;;;;;3.25;1.80;;;;;;;;;;5045908;28;20314;-64
2023/04/22 13:24:38;;;;;;;2.55;1.63;;;;;;;;;;5058508;28;20480;-65
2023/04/22 13:27:06;;;;;;;4.77;1.80;;;;;;;;;;5050059;28;20033;-67
2023/04/22 13:29:31;;;;;;;4.53;1.38;;;;;;;;;;5061030;28;20420;-62
2023/04/22 13:31:56;;;;;;;2.83;1.55;;;;;;;;;;5053981;28;20109;-62
2023/04/22 13:34:21;;;;;;;4.87;1.70;;;;;;;;;;5065019;28;20038;-67
2023/04/22 13:36:46;;;;;;;2.10;1.50;;;;;;;;;;5066402;28;20040;-67
2023/04/22 13:39:12;;;;;;;3.63;1.70;;;;;;;;;;5046514;28;20350;-63
2023/04/22 13:41:37;;;;;;;3.45;1.63;;;;;;;;;;5049321;28;20289;-66
2023/04/22 13:44:03;;;;;;;2.87;1.60;;;;;;;;;;5051430;28;20057;-66
2023/04/22 13:46:28;;;;;;;3.00;1.70;;;;;;;;;;5049070;28;20895;-64
2023/04/22 13:48:55;;;;;;;3.50;1.50;;;;;;;;;;5045935;28;20191;-61
2023/04/22 13:51:20;;;;;;;2.53;1.42;;;;;;;;;;5058095;28;20509;-67
2023/04/22 13:53:45;;;;;;;3.37;1.60;;;;;;;;;;5057372;28;20059;-64
2023/04/22 13:56:11;;;;;;;2.60;1.63;;;;;;;;;;5055867;28;20630;-68
2023/04/22 13:58:37;;;;;;;4.43;1.77;;;;;;;;;;5046295;28;20489;-63
2023/04/22 14:01:03;;;;;;;2.72;1.40;;;;;;;;;;5045404;28;20059;-70
2023/04/22 14:03:29;;;;;;;2.65;1.60;;;;;;;;;;5058616;28;20743;-64
2023/04/22 14:05:55;;;;;;;2.50;1.50;;;;;;;;;;5061609;28;20053;-73
2023/04/22 14:08:20;;;;;;;2.93;1.60;;;;;;;;;;5057868;28;20041;-65
2023/04/22 14:10:45;;;;;;;3.00;1.73;;;;;;;;;;5059419;28;20368;-68
2023/04/22 14:13:10;;;;;;;2.38;1.52;;;;;;;;;;5052845;28;20033;-66
2023/04/22 14:15:36;;;;;;;3.47;1.80;;;;;;;;;;5055533;28;20036;-65
2023/04/22 14:18:02;;;;;;;3.42;1.60;;;;;;;;;;5053144;28;20405;-62
2023/04/22 14:20:27;;;;;;;3.27;1.60;;;;;;;;;;5056793;28;20037;-65
2023/04/22 14:22:52;;;;;;;3.35;1.73;;;;;;;;;;5050585;28;20718;-64
2023/04/22 14:25:18;;;;;;;2.93;1.67;;;;;;;;;;5055217;28;20057;-68
2023/04/22 14:27:43;;;;;;;4.00;1.60;;;;;;;;;;5051753;28;20221;-64
2023/04/22 14:30:08;;;;;;;4.20;1.85;;;;;;;;;;5063916;28;20493;-67
2023/04/22 14:32:34;;;;;;;3.08;1.50;;;;;;;;;;5056864;28;20531;-60